CheckWX is a tool to help pilots better visualize weather data.  It is not intended as a substitute for an official pre-flight weather briefing.

12:04:18 UTC

KDBQ TAF
Dubuque Regional Airport
Dubuque, Iowa, USA
KDBQ 271735Z 2718/2818 18010KT P6SM SCT027 BKN200 FM272100 17009KT P6SM -SHRA SCT021 BKN035 BKN100 FM280700 VRB04KT P6SM -SHRA OVC035 FM280800 VRB03KT P6SM -SHRA OVC014 FM281100 VRB03KT 6SM -RA BR OVC006

May-27@
18:00 UTC

May-27 @ 18:00 UTC

May-27@
21:00 UTC

May-27 @ 21:00 UTC

TAF KDBQ 271735Z 2718/2818 18010KT P6SM SCT027 BKN200

Expired

Wind
  • 180° at 10 KTS
Cloud Levels
  • Scattered at 2,700' AGL
  • Broken at 20,000' AGL

May-27@
21:00 UTC

May-27 @ 21:00 UTC

May-28@
07:00 UTC

May-28 @ 07:00 UTC

FM272100 17009KT P6SM -SHRA SCT021 BKN035 BKN100

Expired

Wind
  • 170° at 9 KTS
Conditions
Light Showers, Rain
Cloud Levels
  • Scattered at 2,100' AGL
  • Broken at 3,500' AGL
  • Broken at 10,000' AGL

May-28@
07:00 UTC

May-28 @ 07:00 UTC

May-28@
08:00 UTC

May-28 @ 08:00 UTC

FM280700 VRB04KT P6SM -SHRA OVC035

Expired

Wind
  • Variable at 4 KTS
Conditions
Light Showers, Rain
Cloud Levels
  • Overcast at 3,500' AGL

May-28@
08:00 UTC

May-28 @ 08:00 UTC

May-28@
11:00 UTC

May-28 @ 11:00 UTC

FM280800 VRB03KT P6SM -SHRA OVC014

Expired

Wind
  • Variable at 3 KTS
Conditions
Light Showers, Rain
Cloud Levels
  • Overcast at 1,400' AGL

May-28@
11:00 UTC

May-28 @ 11:00 UTC

May-28@
18:00 UTC

May-28 @ 18:00 UTC

FM281100 VRB03KT 6SM -RA BR OVC006

From

From Standard forecast or significant change

Wind
  • Variable at 3 KTS
Conditions
Light Rain, Mist
Cloud Levels
  • Overcast at 600' AGL